Time;durP1;ratioP1;P1;durP2;ratioP2;P2;SDS_P1;SDS_P2;PMS_P1;PMS_P2;Temp;Humidity;BMP_temperature;BMP_pressure;BME280_temperature;BME280_humidity;BME280_pressure;Samples;Min_cycle;Max_cycle;Signal;HPM_P1;HPM_P2
2024/01/03 00:00:54;;;;;;;15.30;13.60;;;;;;;4.91;100.00;98284.64;110812;1263;21971;-84
2024/01/03 00:03:46;;;;;;;15.30;13.60;;;;;;;4.92;100.00;98281.83;110696;1263;23718;-82
2024/01/03 00:07:36;;;;;;;18.50;15.00;;;;;;;4.93;100.00;98279.04;110810;1263;21964;-83
2024/01/03 00:11:25;;;;;;;15.80;14.10;;;;;;;4.91;100.00;98272.23;110897;1260;21991;-83
2024/01/03 00:14:25;;;;;;;15.60;14.00;;;;;;;4.92;100.00;98267.15;109745;1270;23031;-84
2024/01/03 00:17:13;;;;;;;15.90;12.70;;;;;;;4.96;100.00;98265.77;109817;1270;22001;-83
2024/01/03 00:19:56;;;;;;;14.60;13.20;;;;;;;5.01;100.00;98263.46;110353;1267;21996;-82
2024/01/03 00:22:39;;;;;;;14.70;12.40;;;;;;;5.04;100.00;98262.11;109463;1272;22036;-82
2024/01/03 00:25:44;;;;;;;14.80;13.00;;;;;;;5.05;100.00;98254.81;109252;1277;21971;-83
2024/01/03 00:29:10;;;;;;;15.70;13.90;;;;;;;5.03;100.00;98253.69;108858;1282;22048;-84
2024/01/03 00:32:13;;;;;;;14.90;13.40;;;;;;;5.05;100.00;98254.29;108589;1281;22804;-83
2024/01/03 00:35:29;;;;;;;15.30;13.10;;;;;;;5.04;100.00;98250.73;108709;1286;23065;-82
2024/01/03 00:38:43;;;;;;;18.50;16.60;;;;;;;5.03;100.00;98246.83;108585;1286;22070;-82
2024/01/03 00:41:35;;;;;;;17.00;14.20;;;;;;;4.98;100.00;98245.99;108794;1282;23759;-83
2024/01/03 00:44:23;;;;;;;16.50;14.80;;;;;;;4.98;100.00;98242.21;109056;1281;22536;-83
2024/01/03 00:47:25;;;;;;;18.20;15.60;;;;;;;5.02;100.00;98239.95;108998;1278;21992;-82
2024/01/03 00:50:05;;;;;;;16.40;14.90;;;;;;;5.05;100.00;98239.45;108899;1281;22577;-83
2024/01/03 00:53:22;;;;;;;21.30;15.30;;;;;;;5.09;100.00;98234.27;108972;1280;21996;-84
2024/01/03 00:57:05;;;;;;;;;;;;;;;;;;;;;
2024/01/03 01:00:24;;;;;;;17.10;15.50;;;;;;;5.07;100.00;98224.02;108960;1280;23729;-83
2024/01/03 01:03:50;;;;;;;45.00;40.70;;;;;;;5.10;100.00;98220.45;109212;1276;22536;-83
2024/01/03 01:06:42;;;;;;;38.20;26.10;;;;;;;5.14;100.00;98218.51;109837;1269;23035;-83
2024/01/03 01:09:55;;;;;;;26.80;18.20;;;;;;;5.15;100.00;98214.13;110820;1262;23701;-84
2024/01/03 01:12:43;;;;;;;22.30;14.90;;;;;;;5.15;100.00;98211.55;110779;1261;21974;-82
2024/01/03 01:15:47;;;;;;;21.00;14.60;;;;;;;5.14;100.00;98208.66;111083;1257;22475;-83
2024/01/03 01:19:01;;;;;;;15.80;12.80;;;;;;;5.14;100.00;98202.65;111102;1257;22428;-85
2024/01/03 01:22:39;;;;;;;18.00;13.30;;;;;;;5.12;100.00;98196.54;110739;1260;21982;-84
2024/01/03 01:25:48;;;;;;;17.00;12.70;;;;;;;5.11;100.00;98191.60;110545;1265;21974;-85
2024/01/03 01:28:42;;;;;;;13.50;11.40;;;;;;;5.12;100.00;98186.72;110537;1265;23609;-85
2024/01/03 01:31:24;;;;;;;13.20;11.40;;;;;;;5.14;100.00;98182.83;110084;1265;21998;-84
2024/01/03 01:34:03;;;;;;;12.10;10.50;;;;;;;5.14;100.00;98180.07;110532;1265;22887;-83
2024/01/03 01:36:53;;;;;;;12.20;11.00;;;;;;;5.15;100.00;98171.77;110189;1252;22004;-83
2024/01/03 01:39:33;;;;;;;10.50;9.60;;;;;;;5.16;100.00;98167.90;109763;1268;21940;-84
2024/01/03 01:42:04;;;;;;;11.40;10.20;;;;;;;5.17;100.00;98158.86;109703;1269;23117;-82
2024/01/03 01:44:47;;;;;;;12.30;10.90;;;;;;;5.19;100.00;98157.56;109935;1269;22089;-84
2024/01/03 01:47:44;;;;;;;11.40;10.30;;;;;;;5.19;100.00;98155.35;109810;1264;24315;-83
2024/01/03 01:50:56;;;;;;;11.50;10.40;;;;;;;5.18;100.00;98150.75;109788;1260;21989;-84
2024/01/03 01:53:35;;;;;;;12.50;11.30;;;;;;;5.17;100.00;98152.52;109436;1273;22106;-82
2024/01/03 01:56:21;;;;;;;11.50;10.20;;;;;;;5.19;100.00;98147.93;109666;1267;22256;-83
2024/01/03 01:59:07;;;;;;;12.90;11.50;;;;;;;5.20;100.00;98143.74;109954;1269;23714;-83
2024/01/03 02:02:06;;;;;;;11.70;10.50;;;;;;;5.20;100.00;98142.88;109653;1272;21995;-81
2024/01/03 02:04:57;;;;;;;12.50;11.30;;;;;;;5.21;100.00;98137.27;109832;1269;23627;-84
2024/01/03 02:07:49;;;;;;;11.80;10.70;;;;;;;5.24;100.00;98131.43;109358;1273;22724;-83
2024/01/03 02:10:40;;;;;;;11.60;10.50;;;;;;;5.27;100.00;98124.55;109495;1273;21997;-84
2024/01/03 02:13:26;;;;;;;11.50;10.40;;;;;;;5.25;100.00;98117.09;109470;1273;21978;-83
2024/01/03 02:16:22;;;;;;;10.50;9.40;;;;;;;5.25;100.00;98113.98;109656;1272;22022;-83
2024/01/03 02:19:04;;;;;;;9.60;8.70;;;;;;;5.28;100.00;98113.64;109760;1269;21984;-83
2024/01/03 02:21:51;;;;;;;10.60;9.60;;;;;;;5.29;100.00;98107.38;109556;1274;23114;-82
2024/01/03 02:24:36;;;;;;;11.20;10.20;;;;;;;5.30;100.00;98106.98;109836;1269;21979;-82
2024/01/03 02:27:36;;;;;;;10.60;9.40;;;;;;;5.29;100.00;98106.02;110636;1260;21977;-83
2024/01/03 02:30:28;;;;;;;10.30;9.40;;;;;;;5.27;100.00;98098.69;110647;1263;21969;-84
2024/01/03 02:33:29;;;;;;;;;;;;;;;;;;;;;
2024/01/03 02:36:26;;;;;;;11.40;10.30;;;;;;;5.30;100.00;98086.63;110105;1267;21970;-83
2024/01/03 02:39:41;;;;;;;11.90;10.70;;;;;;;5.31;100.00;98078.98;110115;1261;22034;-85
2024/01/03 02:42:17;;;;;;;16.80;14.80;;;;;;;5.33;100.00;98080.08;110866;1261;21992;-82
2024/01/03 02:44:58;;;;;;;12.80;11.60;;;;;;;5.36;100.00;98080.10;110266;1265;22046;-83
2024/01/03 02:47:41;;;;;;;10.30;9.40;;;;;;;5.40;100.00;98075.45;110093;1268;21991;-84
2024/01/03 02:51:11;;;;;;;;;;;;;;;;;;;;;
2024/01/03 02:53:59;;;;;;;11.50;9.90;;;;;;;5.42;100.00;98065.52;109880;1270;23066;-85
2024/01/03 02:57:00;;;;;;;10.70;9.70;;;;;;;5.43;100.00;98066.97;109436;1270;23084;-82
2024/01/03 02:59:43;;;;;;;9.00;8.10;;;;;;;5.44;100.00;98062.45;109331;1274;21989;-82
2024/01/03 03:02:40;;;;;;;10.30;7.90;;;;;;;5.43;100.00;98056.65;109597;1274;21991;-84
2024/01/03 03:05:58;;;;;;;19.80;17.80;;;;;;;5.34;100.00;98040.91;109702;1272;22800;-85
2024/01/03 03:09:15;;;;;;;9.70;8.80;;;;;;;5.42;100.00;98045.98;109235;1274;23847;-85
2024/01/03 03:12:18;;;;;;;;;;;;;;;;;;;;;
2024/01/03 03:14:53;;;;;;;9.50;7.80;;;;;;;5.44;100.00;98045.36;109653;1268;22515;-86
2024/01/03 03:17:56;;;;;;;12.10;10.90;;;;;;;5.46;100.00;98040.77;109988;1268;21999;-84
2024/01/03 03:20:36;;;;;;;12.30;11.00;;;;;;;5.48;100.00;98035.83;109906;1268;22063;-86
2024/01/03 03:23:13;;;;;;;15.60;12.70;;;;;;;5.50;100.00;98030.91;110160;1268;23528;-85
2024/01/03 03:26:08;;;;;;;13.40;12.10;;;;;;;5.54;100.00;98032.27;109992;1268;21998;-84
2024/01/03 03:28:57;;;;;;;9.80;8.90;;;;;;;5.56;100.00;98029.21;109910;1270;22086;-83
2024/01/03 03:31:36;;;;;;;9.10;8.20;;;;;;;5.58;100.00;98026.86;110146;1266;22440;-84
2024/01/03 03:34:46;;;;;;;8.00;7.20;;;;;;;5.58;100.00;98021.84;109997;1268;22036;-84
2024/01/03 03:37:35;;;;;;;;;;;;;;;;;;;;;
2024/01/03 03:40:30;;;;;;;9.70;8.60;;;;;;;5.61;100.00;98014.26;109954;1268;21982;-84
2024/01/03 03:43:16;;;;;;;9.00;8.10;;;;;;;5.62;100.00;98008.02;109920;1268;23049;-84
2024/01/03 03:46:36;;;;;;;11.30;9.30;;;;;;;5.59;100.00;98008.16;110341;1266;21982;-85
2024/01/03 03:49:32;;;;;;;11.60;9.90;;;;;;;5.59;100.00;98006.45;110147;1266;21973;-84
2024/01/03 03:52:39;;;;;;;;;;;;;;;;;;;;;
2024/01/03 03:55:22;;;;;;;17.30;13.80;;;;;;;5.65;100.00;98009.19;110303;1255;23064;-84
2024/01/03 03:58:07;;;;;;;13.70;12.50;;;;;;;5.71;100.00;98010.98;110221;1262;21976;-84
2024/01/03 04:00:52;;;;;;;12.30;11.20;;;;;;;5.73;100.00;98010.19;110755;1262;22437;-82
2024/01/03 04:03:48;;;;;;;9.80;8.90;;;;;;;5.72;100.00;98010.93;110905;1262;22440;-83
2024/01/03 04:06:46;;;;;;;62.70;54.00;;;;;;;5.73;100.00;98011.04;110371;1266;23593;-84
2024/01/03 04:09:28;;;;;;;9.60;8.70;;;;;;;5.75;100.00;98014.19;110146;1266;21987;-82
2024/01/03 04:12:30;;;;;;;8.00;7.20;;;;;;;5.80;100.00;98013.55;110345;1263;22857;-84
2024/01/03 04:15:35;;;;;;;;;;;;;;;;;;;;;
2024/01/03 04:18:35;;;;;;;39.10;34.20;;;;;;;5.88;100.00;98013.13;110164;1268;22007;-83
2024/01/03 04:21:36;;;;;;;9.70;8.70;;;;;;;5.93;100.00;98006.98;109607;1273;21996;-84
2024/01/03 04:24:30;;;;;;;7.40;6.60;;;;;;;5.99;100.00;98002.18;109864;1269;22214;-83
2024/01/03 04:27:30;;;;;;;;;;;;;;;;;;;;;
2024/01/03 04:30:58;;;;;;;39.10;34.80;;;;;;;6.11;100.00;98003.59;109790;1272;22137;-83
2024/01/03 04:34:14;;;;;;;8.50;6.60;;;;;;;6.15;100.00;98003.00;109369;1277;21949;-83
2024/01/03 04:37:52;;;;;;;6.10;5.40;;;;;;;6.17;100.00;98003.21;109210;1276;23612;-84
2024/01/03 04:40:56;;;;;;;;;;;;;;;;;;;;;
2024/01/03 04:44:04;;;;;;;;;;;;;;;;;;;;;
2024/01/03 04:47:11;;;;;;;;;;;;;;;;;;;;;
2024/01/03 04:50:39;;;;;;;39.40;35.60;;;;;;;6.29;100.00;97993.93;110403;1265;21978;-84
2024/01/03 04:53:32;;;;;;;11.60;10.50;;;;;;;6.31;100.00;97998.10;111195;1259;22505;-85
2024/01/03 04:56:29;;;;;;;;;;;;;;;;;;;;;
2024/01/03 04:59:12;;;;;;;14.60;13.10;;;;;;;6.39;100.00;97988.64;110758;1261;23708;-86
2024/01/03 05:02:02;;;;;;;14.50;13.00;;;;;;;6.40;100.00;97985.98;110792;1261;21926;-86
2024/01/03 05:04:55;;;;;;;;;;;;;;;;;;;;;
2024/01/03 05:07:46;;;;;;;10.90;9.90;;;;;;;6.45;100.00;97988.65;110981;1261;21964;-85
2024/01/03 05:10:41;;;;;;;7.40;5.80;;;;;;;6.51;100.00;97985.52;110623;1261;24405;-85
2024/01/03 05:13:21;;;;;;;7.10;5.60;;;;;;;6.56;100.00;97984.23;110098;1265;24325;-82
2024/01/03 05:16:12;;;;;;;4.30;3.90;;;;;;;6.63;100.00;97988.31;110755;1264;23702;-84
2024/01/03 05:18:51;;;;;;;4.40;3.60;;;;;;;6.67;100.00;97982.67;110544;1264;21986;-84
2024/01/03 05:21:52;;;;;;;5.30;3.70;;;;;;;6.73;100.00;97981.98;110643;1263;21987;-83
2024/01/03 05:24:27;;;;;;;5.80;3.70;;;;;;;6.79;100.00;97978.50;110766;1263;21990;-83
2024/01/03 05:27:12;;;;;;;8.10;5.00;;;;;;;6.86;100.00;97980.00;110750;1264;21975;-82
2024/01/03 05:29:55;;;;;;;5.10;4.50;;;;;;;6.91;100.00;97979.91;110728;1264;22456;-84
2024/01/03 05:32:36;;;;;;;5.90;4.20;;;;;;;6.95;100.00;97982.08;110345;1262;22726;-83
2024/01/03 05:35:16;;;;;;;9.00;3.90;;;;;;;6.98;100.00;97980.85;110676;1263;23026;-85
2024/01/03 05:38:00;;;;;;;5.50;4.10;;;;;;;7.01;100.00;97980.46;109929;1267;22170;-83
2024/01/03 05:41:18;;;;;;;5.60;4.10;;;;;;;7.05;100.00;97985.95;110048;1267;21984;-85
2024/01/03 05:44:08;;;;;;;5.70;4.40;;;;;;;7.06;100.00;97985.39;109727;1270;23774;-84
2024/01/03 05:47:05;;;;;;;10.90;6.70;;;;;;;7.10;100.00;97989.30;109254;1274;23716;-84
2024/01/03 05:50:15;;;;;;;10.30;7.10;;;;;;;7.12;100.00;97990.02;109507;1271;22338;-83
2024/01/03 05:52:53;;;;;;;12.70;9.70;;;;;;;7.13;100.00;97988.27;109689;1270;23145;-83
2024/01/03 05:55:30;;;;;;;11.00;8.50;;;;;;;7.12;100.00;97989.14;109816;1268;22000;-84
2024/01/03 05:58:12;;;;;;;7.40;5.50;;;;;;;7.13;100.00;97988.59;110218;1261;22969;-83
2024/01/03 06:01:06;;;;;;;6.20;4.40;;;;;;;7.17;100.00;97989.19;109758;1271;24344;-82
2024/01/03 06:04:00;;;;;;;7.40;4.40;;;;;;;7.21;100.00;97991.20;110110;1265;21968;-82
2024/01/03 06:06:43;;;;;;;5.40;4.00;;;;;;;7.25;100.00;97996.51;110466;1264;22981;-82
2024/01/03 06:09:41;;;;;;;7.00;3.80;;;;;;;7.29;100.00;97999.90;110494;1265;22964;-83
2024/01/03 06:12:33;;;;;;;4.20;3.30;;;;;;;7.32;100.00;97999.67;110447;1264;21983;-84
2024/01/03 06:15:16;;;;;;;3.90;3.30;;;;;;;7.38;100.00;98001.02;110301;1269;21977;-83
2024/01/03 06:18:26;;;;;;;4.30;3.40;;;;;;;7.45;100.00;98004.10;110305;1268;23048;-83
2024/01/03 06:21:20;;;;;;;5.20;3.80;;;;;;;7.48;100.00;98004.92;109913;1268;23068;-83
2024/01/03 06:24:25;;;;;;;6.00;4.30;;;;;;;7.50;100.00;98010.52;110100;1268;23073;-84
2024/01/03 06:26:58;;;;;;;4.30;3.50;;;;;;;7.54;100.00;98010.96;109840;1268;22000;-83
2024/01/03 06:30:19;;;;;;;4.80;3.20;;;;;;;7.54;100.00;98011.65;110028;1268;21998;-84
2024/01/03 06:33:01;;;;;;;7.10;3.60;;;;;;;7.55;100.00;98013.31;110516;1259;23739;-83
2024/01/03 06:36:11;;;;;;;7.80;3.80;;;;;;;7.57;100.00;98016.64;110736;1264;21961;-84
2024/01/03 06:39:12;;;;;;;5.80;3.60;;;;;;;7.61;100.00;98018.14;110451;1263;21988;-84
2024/01/03 06:42:33;;;;;;;6.20;4.40;;;;;;;7.65;100.00;98019.45;110734;1261;22047;-82
2024/01/03 06:45:24;;;;;;;6.80;5.10;;;;;;;7.69;100.00;98021.83;110872;1261;21990;-83
2024/01/03 06:48:17;;;;;;;8.20;5.30;;;;;;;7.71;100.00;98027.34;110407;1266;21981;-84
2024/01/03 06:51:32;;;;;;;8.80;5.60;;;;;;;7.73;100.00;98032.47;110166;1267;22025;-83
2024/01/03 06:54:23;;;;;;;7.40;4.70;;;;;;;7.73;100.00;98032.79;109908;1268;22158;-84
2024/01/03 06:57:24;;;;;;;6.60;4.50;;;;;;;7.74;100.00;98037.74;109724;1270;22001;-83
2024/01/03 07:00:56;;;;;;;7.80;5.30;;;;;;;7.75;100.00;98043.55;109246;1275;22763;-85
2024/01/03 07:03:42;;;;;;;12.50;6.10;;;;;;;7.76;100.00;98043.16;109088;1275;23650;-84
2024/01/03 07:07:00;;;;;;;9.00;4.90;;;;;;;7.76;100.00;98048.31;109395;1273;22022;-86
2024/01/03 07:10:22;;;;;;;8.30;6.80;;;;;;;7.79;100.00;98055.98;109414;1275;21979;-85
2024/01/03 07:13:14;;;;;;;16.70;10.30;;;;;;;7.81;100.00;98062.10;109659;1273;22012;-82
2024/01/03 07:16:09;;;;;;;12.40;9.20;;;;;;;7.84;100.00;98061.20;109825;1268;21960;-82
2024/01/03 07:19:40;;;;;;;19.10;10.70;;;;;;;7.87;100.00;98063.06;110308;1268;23648;-82
2024/01/03 07:22:44;;;;;;;20.90;13.30;;;;;;;7.88;100.00;98068.19;109501;1271;22998;-82
2024/01/03 07:25:49;;;;;;;12.20;9.10;;;;;;;7.91;100.00;98073.23;110065;1268;23679;-83
2024/01/03 07:29:00;;;;;;;9.30;7.50;;;;;;;7.92;100.00;98073.35;110284;1267;23042;-81
2024/01/03 07:32:13;;;;;;;;;;;;;;;;;;;;;
2024/01/03 07:35:32;;;;;;;;;;;;;;;;;;;;;
2024/01/03 07:38:24;;;;;;;7.80;6.70;;;;;;;8.00;100.00;98079.42;111017;1261;23025;-83
2024/01/03 07:41:57;;;;;;;8.40;7.00;;;;;;;8.05;100.00;98075.48;110936;1261;21994;-81
2024/01/03 07:45:53;;;;;;;10.60;7.90;;;;;;;8.07;100.00;98079.64;109427;1275;21993;-83
2024/01/03 07:49:13;;;;;;;9.90;7.60;;;;;;;8.11;100.00;98080.64;109341;1275;24375;-83
2024/01/03 07:52:41;;;;;;;14.30;10.60;;;;;;;8.15;100.00;98087.77;109471;1274;22060;-85
2024/01/03 07:55:49;;;;;;;23.80;13.70;;;;;;;8.20;100.00;98091.11;109214;1269;22114;-83
2024/01/03 07:58:39;;;;;;;22.70;17.60;;;;;;;8.27;100.00;98088.45;109317;1274;22008;-83
2024/01/03 08:01:55;;;;;;;27.10;13.70;;;;;;;8.34;100.00;98084.50;110008;1270;23117;-81
2024/01/03 08:05:22;;;;;;;12.50;10.00;;;;;;;8.41;100.00;98088.41;110778;1263;23701;-83
2024/01/03 08:08:06;;;;;;;14.40;9.50;;;;;;;8.48;100.00;98090.41;109950;1268;23128;-82
2024/01/03 08:10:48;;;;;;;16.50;11.70;;;;;;;8.54;100.00;98095.04;109582;1273;23041;-81
2024/01/03 08:14:08;;;;;;;13.90;10.90;;;;;;;8.58;100.00;98094.61;109696;1273;22140;-80
2024/01/03 08:16:58;;;;;;;13.10;10.40;;;;;;;8.62;100.00;98100.06;109371;1275;22977;-80
2024/01/03 08:19:41;;;;;;;11.80;8.70;;;;;;;8.68;100.00;98103.16;109008;1280;22001;-80
2024/01/03 08:22:46;;;;;;;9.50;8.40;;;;;;;8.71;100.00;98105.70;109267;1274;21984;-86
2024/01/03 08:25:31;;;;;;;13.20;10.40;;;;;;;8.74;100.00;98105.84;109157;1276;22001;-82
2024/01/03 08:28:45;;;;;;;9.30;7.90;;;;;;;8.81;100.00;98108.52;109463;1269;22076;-80
2024/01/03 08:32:28;;;;;;;;;;;;;;;;;;;;;
2024/01/03 08:35:20;;;;;;;16.30;10.70;;;;;;;8.91;100.00;98114.13;109622;1272;22017;-85
2024/01/03 08:38:08;;;;;;;31.40;21.60;;;;;;;8.99;100.00;98114.98;109698;1269;22848;-86
2024/01/03 08:40:49;;;;;;;16.00;12.30;;;;;;;9.05;100.00;98116.82;109833;1269;21978;-84
2024/01/03 08:43:50;;;;;;;11.20;8.20;;;;;;;9.08;100.00;98122.70;110260;1265;22156;-87
2024/01/03 08:46:48;;;;;;;11.20;7.60;;;;;;;9.13;100.00;98124.97;109863;1271;22585;-84
2024/01/03 08:49:53;;;;;;;;;;;;;;;;;;;;;
2024/01/03 08:52:38;;;;;;;9.70;7.80;;;;;;;9.23;100.00;98129.34;109831;1272;22014;-85
2024/01/03 08:55:44;;;;;;;10.90;8.00;;;;;;;9.27;100.00;98136.64;109974;1269;22035;-86
2024/01/03 08:58:36;;;;;;;9.40;7.30;;;;;;;9.26;100.00;98127.22;110058;1269;21991;-84
2024/01/03 09:01:27;;;;;;;10.80;7.20;;;;;;;9.35;100.00;98139.80;111050;1262;22114;-85
2024/01/03 09:04:14;;;;;;;10.80;7.90;;;;;;;9.41;100.00;98141.13;110899;1256;21959;-84
2024/01/03 09:07:08;;;;;;;9.10;6.00;;;;;;;9.47;100.00;98144.66;111412;1256;24291;-85
2024/01/03 09:09:51;;;;;;;8.10;6.30;;;;;;;9.55;100.00;98146.25;111366;1255;21982;-85
2024/01/03 09:12:50;;;;;;;13.20;8.60;;;;;;;9.65;100.00;98149.77;111467;1255;21975;-85
2024/01/03 09:15:36;;;;;;;6.40;5.20;;;;;;;9.71;100.00;98147.07;111245;1256;23615;-87
2024/01/03 09:18:22;;;;;;;9.10;7.20;;;;;;;9.77;100.00;98147.14;111159;1256;21932;-85
2024/01/03 09:21:21;;;;;;;8.10;5.60;;;;;;;9.83;100.00;98149.20;111411;1256;21979;-85
2024/01/03 09:23:58;;;;;;;7.20;4.20;;;;;;;9.92;100.00;98147.67;111329;1256;21958;-85
2024/01/03 09:26:54;;;;;;;5.00;3.70;;;;;;;10.02;100.00;98147.98;111296;1252;21984;-85
2024/01/03 09:29:38;;;;;;;8.20;3.90;;;;;;;10.12;100.00;98157.06;111221;1253;21985;-85
2024/01/03 09:32:21;;;;;;;4.90;3.80;;;;;;;10.22;100.00;98153.55;111186;1256;23707;-86
2024/01/03 09:35:04;;;;;;;5.80;3.70;;;;;;;10.32;100.00;98157.23;111122;1256;21972;-84
2024/01/03 09:37:52;;;;;;;8.10;3.40;;;;;;;10.40;100.00;98165.14;111234;1256;21952;-84
2024/01/03 09:40:45;;;;;;;5.50;3.40;;;;;;;10.44;100.00;98167.52;110654;1264;282937;-86
2024/01/03 09:43:22;;;;;;;6.00;4.40;;;;;;;10.46;100.00;98162.79;109701;1269;21983;-85
2024/01/03 09:46:00;;;;;;;11.30;7.30;;;;;;;10.49;100.00;98165.05;109691;1269;23049;-87
2024/01/03 09:48:49;;;;;;;8.20;4.20;;;;;;;10.52;100.00;98165.90;109744;1269;23055;-85
2024/01/03 09:51:36;;;;;;;6.40;4.90;;;;;;;10.52;100.00;98166.70;109696;1269;23260;-83
2024/01/03 09:54:21;;;;;;;10.90;5.20;;;;;;;10.51;100.00;98170.06;109958;1269;21978;-87
2024/01/03 09:57:04;;;;;;;5.90;4.20;;;;;;;10.48;100.00;98171.23;109950;1269;21988;-86
2024/01/03 10:00:21;;;;;;;5.70;4.10;;;;;;;10.44;100.00;98169.95;110836;1261;22504;-86
2024/01/03 10:03:07;;;;;;;31.00;5.20;;;;;;;10.44;100.00;98168.38;111244;1256;21984;-85
2024/01/03 10:06:18;;;;;;;7.10;4.10;;;;;;;10.45;100.00;98171.08;111426;1256;22064;-85
2024/01/03 10:09:44;;;;;;;6.60;3.80;;;;;;;10.46;100.00;98175.66;111331;1256;22071;-86
2024/01/03 10:12:29;;;;;;;9.10;4.90;;;;;;;10.46;100.00;98179.17;111357;1256;22215;-86
2024/01/03 10:15:33;;;;;;;10.50;5.80;;;;;;;10.46;100.00;98181.45;111442;1256;21993;-86
2024/01/03 10:18:49;;;;;;;;;;;;;;;10.44;100.00;98180.84;111460;1256;21955;-86
2024/01/03 10:21:34;;;;;;;7.50;4.30;;;;;;;10.39;100.00;98180.92;111203;1252;21967;-86
2024/01/03 10:24:14;;;;;;;6.40;3.90;;;;;;;10.43;100.00;98178.65;111208;1257;23714;-86
2024/01/03 10:27:45;;;;;;;;;;;;;;;;;;;;;
2024/01/03 10:30:41;;;;;;;8.70;4.90;;;;;;;10.56;100.00;98183.30;111126;1253;21936;-84
2024/01/03 10:38:36;;;;;;;4.70;3.80;;;;;;;10.54;100.00;98174.10;111334;1262;23793;-84
2024/01/03 10:41:21;;;;;;;5.40;3.30;;;;;;;10.59;100.00;98185.54;110632;1258;21990;-86
2024/01/03 10:44:01;;;;;;;4.50;3.60;;;;;;;10.59;100.00;98188.52;110344;1262;22497;-86
2024/01/03 10:48:06;;;;;;;8.40;5.90;;;;;;;10.58;100.00;98187.39;110762;1262;21983;-85
2024/01/03 10:51:05;;;;;;;13.40;11.20;;;;;;;10.54;100.00;98185.34;109754;1271;21996;-84
2024/01/03 10:54:02;;;;;;;9.20;7.40;;;;;;;10.58;100.00;98185.98;109611;1271;24342;-87
2024/01/03 10:57:04;;;;;;;8.40;5.40;;;;;;;10.59;100.00;98180.37;109542;1273;21981;-84
2024/01/03 11:00:22;;;;;;;6.00;3.90;;;;;;;10.64;100.00;98185.52;108953;1280;22009;-85
2024/01/03 11:03:46;;;;;;;4.90;4.30;;;;;;;10.75;100.00;98177.11;108990;1280;23726;-85
2024/01/03 11:11:29;;;;;;;5.80;4.80;;;;;;;10.96;100.00;98174.88;108589;1288;22012;-85
2024/01/03 11:14:26;;;;;;;6.90;5.60;;;;;;;11.00;100.00;98170.02;108621;1286;22012;-88
2024/01/03 11:18:38;;;;;;;5.50;4.50;;;;;;;10.99;100.00;98170.09;108527;1286;22000;-85
2024/01/03 11:21:23;;;;;;;7.10;5.50;;;;;;;10.99;100.00;98166.45;108522;1283;22201;-83
2024/01/03 11:24:36;;;;;;;9.90;8.00;;;;;;;11.01;100.00;98168.55;108222;1292;22951;-84
2024/01/03 11:27:32;;;;;;;7.10;5.70;;;;;;;11.02;100.00;98167.78;108563;1283;21992;-82
2024/01/03 11:31:09;;;;;;;13.40;9.40;;;;;;;11.06;100.00;98162.62;108836;1283;22079;-85
2024/01/03 11:34:49;;;;;;;;;;;;;;;;;;;;;
2024/01/03 11:38:47;;;;;;;7.80;6.40;;;;;;;11.05;100.00;98164.80;108666;1286;22131;-85
2024/01/03 11:42:04;;;;;;;8.10;5.60;;;;;;;11.04;100.00;98169.05;108630;1286;21983;-85
2024/01/03 11:47:58;;;;;;;6.50;3.80;;;;;;;11.03;100.00;98175.38;108596;1284;23623;-86
2024/01/03 11:50:47;;;;;;;7.20;4.60;;;;;;;11.01;100.00;98173.92;108705;1280;23308;-83
2024/01/03 11:53:45;;;;;;;9.40;5.20;;;;;;;11.00;100.00;98174.70;108728;1284;23820;-85
2024/01/03 11:56:41;;;;;;;15.20;9.00;;;;;;;10.98;100.00;98177.68;108613;1285;21845;-85
2024/01/03 12:00:20;;;;;;;12.30;8.30;;;;;;;10.95;100.00;98174.02;108909;1280;22293;-86
2024/01/03 12:03:05;;;;;;;9.60;6.30;;;;;;;10.93;100.00;98175.94;109122;1273;22766;-83
2024/01/03 12:05:59;;;;;;;10.90;5.40;;;;;;;10.95;100.00;98171.11;108820;1284;21992;-84
2024/01/03 12:09:35;;;;;;;9.10;5.60;;;;;;;10.97;100.00;98172.34;108667;1286;22033;-82
2024/01/03 12:12:54;;;;;;;8.70;6.20;;;;;;;11.19;100.00;98175.91;108381;1287;544190;-83
2024/01/03 12:19:41;;;;;;;;;;;;;;;;;;;;;
2024/01/03 12:22:44;;;;;;;;;;;;;;;;;;;;;
2024/01/03 12:25:45;;;;;;;11.10;6.30;;;;;;;11.09;100.00;98174.07;107457;1270;2920351;-83
2024/01/03 12:28:56;;;;;;;;;;;;;;;;;;;;;
2024/01/03 12:31:43;;;;;;;8.90;6.10;;;;;;;11.10;100.00;98175.90;109420;1274;22022;-84
2024/01/03 12:35:01;;;;;;;7.50;5.90;;;;;;;11.12;100.00;98176.44;109277;1274;21993;-84
2024/01/03 12:38:11;;;;;;;;;;;;;;;;;;;;;
2024/01/03 12:41:14;;;;;;;6.90;5.20;;;;;;;11.17;100.00;98168.40;108849;1280;23682;-84
2024/01/03 12:43:58;;;;;;;9.70;6.20;;;;;;;11.20;100.00;98169.09;108692;1282;22240;-84
2024/01/03 12:46:28;;;;;;;10.40;5.80;;;;;;;11.24;100.00;98169.48;108976;1278;23715;-84
2024/01/03 12:48:59;;;;;;;8.90;5.30;;;;;;;11.27;100.00;98167.13;109315;1271;21986;-84
2024/01/03 12:51:41;;;;;;;9.50;5.60;;;;;;;11.28;100.00;98165.63;109280;1275;23809;-85
2024/01/03 12:57:59;;;;;;;13.20;10.60;;;;;;;11.27;100.00;98158.92;109364;1271;22468;-85
2024/01/03 13:00:45;;;;;;;7.90;6.50;;;;;;;11.28;100.00;98160.58;109241;1274;22473;-85
2024/01/03 13:03:39;;;;;;;10.70;8.20;;;;;;;11.31;100.00;98160.36;109774;1269;21985;-83
2024/01/03 13:06:26;;;;;;;21.30;15.40;;;;;;;11.34;100.00;98155.09;109819;1269;23646;-84
2024/01/03 13:09:12;;;;;;;15.50;10.60;;;;;;;11.35;100.00;98150.31;109841;1263;21741;-83
2024/01/03 13:12:00;;;;;;;16.50;9.60;;;;;;;11.22;100.00;98127.34;110786;1263;21992;-85
2024/01/03 13:15:00;;;;;;;14.00;9.80;;;;;;;11.27;100.00;98134.91;110187;1267;21976;-83
2024/01/03 13:18:17;;;;;;;11.10;7.30;;;;;;;11.32;100.00;98144.25;110751;1260;22418;-85
2024/01/03 13:21:16;;;;;;;11.90;8.20;;;;;;;11.30;100.00;98143.95;110839;1260;22830;-83
2024/01/03 13:23:56;;;;;;;14.50;11.30;;;;;;;11.22;100.00;98132.89;110879;1260;23673;-83
2024/01/03 13:26:47;;;;;;;13.30;9.00;;;;;;;11.26;100.00;98134.87;110145;1266;23599;-83
2024/01/03 13:29:41;;;;;;;9.70;6.80;;;;;;;11.36;100.00;98145.20;110071;1267;21971;-81
2024/01/03 13:32:23;;;;;;;7.70;6.70;;;;;;;11.35;100.00;98145.80;110466;1261;22109;-84
2024/01/03 13:35:26;;;;;;;8.10;6.70;;;;;;;11.36;100.00;98148.91;110971;1261;22027;-84
2024/01/03 13:38:38;;;;;;;10.60;6.40;;;;;;;11.37;100.00;98151.92;111034;1261;21966;-82
2024/01/03 13:41:32;;;;;;;9.90;5.50;;;;;;;11.39;100.00;98156.13;110712;1261;21970;-84
2024/01/03 13:45:10;;;;;;;7.70;5.00;;;;;;;11.36;100.00;98165.09;111258;1255;22714;-84
2024/01/03 13:48:55;;;;;;;9.80;7.30;;;;;;;11.33;100.00;98167.00;111003;1260;21959;-85
2024/01/03 13:52:46;;;;;;;13.60;9.40;;;;;;;11.31;100.00;98171.75;110184;1268;21981;-84
2024/01/03 13:55:34;;;;;;;12.30;7.40;;;;;;;11.31;100.00;98167.71;109296;1275;23637;-83
2024/01/03 13:58:29;;;;;;;10.50;7.50;;;;;;;11.31;100.00;98168.02;109393;1275;22012;-85
2024/01/03 14:01:36;;;;;;;15.30;9.30;;;;;;;11.32;100.00;98172.34;109340;1275;22470;-84
2024/01/03 14:04:33;;;;;;;16.50;9.90;;;;;;;11.30;100.00;98170.73;109349;1275;22090;-81
2024/01/03 14:11:04;;;;;;;18.20;12.00;;;;;;;11.29;100.00;98171.91;109017;1278;22067;-82
2024/01/03 14:14:00;;;;;;;12.60;8.70;;;;;;;11.29;100.00;98175.86;109151;1278;23079;-84
2024/01/03 14:17:29;;;;;;;13.30;9.10;;;;;;;11.22;100.00;98184.41;109124;1273;22067;-81
2024/01/03 14:20:38;;;;;;;14.40;9.00;;;;;;;11.11;100.00;98180.89;109104;1278;22376;-85
2024/01/03 14:23:59;;;;;;;17.50;10.20;;;;;;;10.97;100.00;98172.81;109284;1274;22004;-83
2024/01/03 14:26:57;;;;;;;11.80;7.90;;;;;;;10.86;100.00;98169.65;110102;1262;23804;-82
2024/01/03 14:30:04;;;;;;;10.10;7.30;;;;;;;10.77;100.00;98175.66;110595;1263;22007;-85
2024/01/03 14:33:00;;;;;;;9.50;5.50;;;;;;;10.68;100.00;98187.18;110916;1255;21992;-83
2024/01/03 14:36:16;;;;;;;10.90;6.90;;;;;;;10.53;100.00;98183.54;111557;1255;22044;-84
2024/01/03 14:39:17;;;;;;;5.10;3.20;;;;;;;10.35;100.00;98186.91;111074;1258;22779;-80
2024/01/03 14:42:18;;;;;;;5.40;2.80;;;;;;;10.29;100.00;98194.24;111056;1258;23046;-84
2024/01/03 14:45:12;;;;;;;6.40;3.60;;;;;;;10.24;100.00;98187.30;111156;1258;23714;-84